Terminal Aerodrome Forecast
Issued by NWS Corpus Christi, TX

Home | Current Version | Previous Version | Text Only | Print | Product List | Glossary On
Versions: 1 2 3 4 5 6 7 8 9 10 11 12 13 14
000
FTUS44 KCRP 311128
TAFVCT
TAF
KVCT 311128Z 3112/0112 VRB05KT P6SM SCT250
     FM311700 VRB06KT P6SM VCTS SCT035CB BKN050
     FM010000 VRB06KT P6SM SCT250=

USA.gov is the U.S. government's official web portal to all federal, state and local government web resources and services.